• Join FlightAware (Why Join?)
  • Login
  • US Flag 
10:45PM EDT


 

Airport Tracker/Info


-or-


 

Live Flight TrackerFlight Track Log ✈ VRD204 ✈ 09-May-2012 ✈ KSFO - KORD

Flight Track Log - Related Links

Times and Time Zones

All times are in EDT time to prevent confusion due to time zone crossing. See the VRD204 flight status page for this flight to view local times or setup timezone preferences in your user account.

Time Position Orientation Groundspeed Altitude Reporting Facility
EDT Latitude Longitude Course Direction KTS MPH feet Rate Location/Type
04:24PM 37.6667 -122.3333 50° Northeast 174 200 2,200  Level Northern Cal TRACON
04:25PM 37.7000 -122.2833 47° Northeast 195 224 3,700 1,500 Climbing Northern Cal TRACON
04:26PM 37.7500 -122.2167 46° Northeast 299 344 5,300 2,160 Climbing Northern Cal TRACON
04:27PM 37.8000 -122.1500 48° Northeast 287 330 8,100 2,040 Climbing Northern Cal TRACON
04:29PM 37.9319 -121.9636 48° Northeast 321 369 12,000 1,800 Climbing Oakland Center
04:30PM 37.9994 -121.8697 49° Northeast 339 390 14,100 2,100 Climbing Oakland Center
04:31PM 38.0669 -121.7703 48° Northeast 351 404 16,300 1,980 Climbing Oakland Center
04:32PM 38.1383 -121.6681 48° Northeast 370 426 18,100 1,800 Climbing Oakland Center
04:33PM 38.2119 -121.5628 48° Northeast 383 441 20,000 1,800 Climbing Oakland Center
04:34PM 38.2897 -121.4525 50° Northeast 399 459 21,700 1,680 Climbing Oakland Center
04:35PM 38.3650 -121.3389 50° Northeast 411 473 23,400 1,380 Climbing Oakland Center
04:36PM 38.4467 -121.2147 54° Northeast 439 505 24,600 1,320 Climbing Oakland Center
04:37PM 38.5303 -121.0664 51° Northeast 462 532 26,100 1,320 Climbing Oakland Center
04:38PM 38.6097 -120.9417 51° Northeast 462 532 27,300 1,200 Climbing Oakland Center
04:39PM 38.6908 -120.8139 51° Northeast 462 532 28,500 1,080 Climbing Oakland Center
04:40PM 38.7719 -120.6831 52° Northeast 462 532 29,500 1,140 Climbing Oakland Center
04:41PM 38.8528 -120.5494 51° Northeast 468 539 30,800 1,200 Climbing Oakland Center
04:42PM 38.9358 -120.4156 51° Northeast 468 539 32,000 1,140 Climbing Oakland Center
04:43PM 39.0164 -120.2867 53° Northeast 468 539 33,100 960 Climbing Oakland Center
04:44PM 39.0947 -120.1519 55° Northeast 468 539 34,000 900 Climbing Oakland Center
04:45PM 39.1564 -120.0389 52° Northeast 450 518 34,900 480 Climbing Oakland Center
04:46PM 39.2347 -119.9092 52° Northeast 450 518 35,000  Climbing Oakland Center
04:47PM 39.3147 -119.7764 53° Northeast 455 524 35,000  Level Oakland Center
04:48PM 39.3925 -119.6436 52° Northeast 460 529 35,100  Climbing Oakland Center
04:49PM 39.4703 -119.5128 53° Northeast 460 529 35,100 -60 Level Oakland Center
04:50PM 39.5497 -119.3767 53° Northeast 460 529 35,000 -60 Descending Oakland Center
04:51PM 39.6250 -119.2456 64° Northeast 460 529 35,000  Level Oakland Center
04:52PM 39.6811 -119.0931 65° Northeast 460 529 35,000  Level Oakland Center
04:53PM 39.7350 -118.9431 66° East 455 524 35,000  Level Oakland Center
04:54PM 39.7925 -118.7767 66° East 455 524 35,000  Level Oakland Center
04:55PM 39.8436 -118.6264 66° East 450 518 35,000  Level Oakland Center
04:57PM 39.9350 -118.3578 66° East 456 525 35,000  Level Salt Lake Center
04:58PM 39.9869 -118.2053 66° East 458 527 35,000  Level Salt Lake Center
04:59PM 40.0486 -118.0231 66° East 457 526 35,000  Level Salt Lake Center
05:00PM 40.0953 -117.8828 66° East 456 525 35,000  Level Salt Lake Center
05:01PM 40.1525 -117.7122 66° East 458 527 35,000  Level Salt Lake Center
05:02PM 40.2011 -117.5664 66° East 458 527 35,000  Level Salt Lake Center
05:03PM 40.2497 -117.4217 66° East 456 525 35,000  Level Salt Lake Center
05:04PM 40.3064 -117.2517 67° East 456 525 35,000  Level Salt Lake Center
05:05PM 40.3461 -117.1308 66° East 455 524 35,000  Level Salt Lake Center
05:06PM 40.4125 -116.9306 67° East 455 524 35,000  Level Salt Lake Center
05:07PM 40.4608 -116.7789 67° East 455 524 35,000  Level Salt Lake Center
05:08PM 40.5089 -116.6303 67° East 458 527 35,000  Level Salt Lake Center
05:09PM 40.5631 -116.4583 67° East 457 526 35,000  Level Salt Lake Center
05:10PM 40.6108 -116.3103 67° East 458 527 35,000  Level Salt Lake Center
05:11PM 40.6661 -116.1375 67° East 459 528 35,000  Level Salt Lake Center
05:12PM 40.7142 -115.9892 67° East 460 529 35,000  Level Salt Lake Center
05:13PM 40.7608 -115.8417 68° East 457 526 35,000  Level Salt Lake Center
05:14PM 40.8131 -115.6694 67° East 454 522 35,000  Level Salt Lake Center
05:15PM 40.8597 -115.5217 67° East 455 524 35,000  Level Salt Lake Center
05:16PM 40.9136 -115.3494 68° East 455 524 35,000  Level Salt Lake Center
05:17PM 40.9581 -115.2008 69° East 454 522 35,000  Level Salt Lake Center
05:18PM 41.0069 -115.0272 67° East 452 520 35,000  Level Salt Lake Center
05:19PM 41.0553 -114.8783 68° East 456 525 35,000  Level Salt Lake Center
05:21PM 41.1033 -114.7225 68° East 455 524 35,000  Level Salt Lake Center
05:22PM 41.1583 -114.5397 68° East 454 522 35,000  Level Salt Lake Center
05:23PM 41.2053 -114.3842 70° East 452 520 35,000  Level Salt Lake Center
05:24PM 41.2489 -114.2275 69° East 450 518 35,000  Level Salt Lake Center
05:25PM 41.2942 -114.0733 68° East 446 513 35,000  Level Salt Lake Center
05:26PM 41.3400 -113.9192 74° East 445 512 35,000  Level Salt Lake Center
05:27PM 41.3747 -113.7586 80° East 449 517 35,000  Level Salt Lake Center
05:28PM 41.3953 -113.5944 81° East 447 514 35,000  Level Salt Lake Center
05:29PM 41.4169 -113.4039 80° East 443 510 35,000  Level Salt Lake Center
05:30PM 41.4375 -113.2411 80° East 442 509 35,000  Level Salt Lake Center
05:31PM 41.4594 -113.0783 81° East 442 509 35,000  Level Salt Lake Center
05:32PM 41.4792 -112.9156 81° East 442 509 35,000  Level Salt Lake Center
05:33PM 41.4983 -112.7525 81° East 441 507 35,000  Level Salt Lake Center
05:34PM 41.5175 -112.5878 80° East 444 511 35,000  Level Salt Lake Center
05:35PM 41.5381 -112.4231 82° East 445 512 35,000  Level Salt Lake Center
05:36PM 41.5603 -112.2036 82° East 442 509 35,000  Level Salt Lake Center
05:37PM 41.5772 -112.0392 82° East 442 509 35,000  Level Salt Lake Center
05:38PM 41.5936 -111.8753 82° East 440 506 35,000  Level Salt Lake Center
05:39PM 41.6103 -111.7108 82° East 441 507 35,000  Level Salt Lake Center
05:40PM 41.6272 -111.5461 83° East 441 507 35,000  Level Salt Lake Center
05:41PM 41.6431 -111.3822 82° East 440 506 35,000  Level Salt Lake Center
05:42PM 41.6592 -111.2183 82° East 440 506 35,000  Level Salt Lake Center
05:44PM 41.6781 -111.0278 83° East 439 505 35,000  Level Salt Lake Center
05:45PM 41.6928 -110.8708 83° East 440 506 35,000  Level Salt Lake Center
05:46PM 41.7083 -110.6911 83° East 438 504 35,000  Level Salt Lake Center
05:47PM 41.7228 -110.5375 83° East 436 502 35,000  Level Salt Lake Center
05:48PM 41.7364 -110.3831 83° East 437 503 35,000  Level Salt Lake Center
05:49PM 41.7519 -110.2028 83° East 436 502 35,000  Level Salt Lake Center
05:50PM 41.7650 -110.0481 83° East 436 502 35,000  Level Salt Lake Center
05:51PM 41.7803 -109.8681 83° East 436 502 35,000  Level Salt Lake Center
05:52PM 41.7933 -109.7133 84° East 436 502 35,000  Level Salt Lake Center
05:53PM 41.8081 -109.5319 84° East 437 503 35,000  Level Salt Lake Center
05:54PM 41.8206 -109.3761 84° East 437 503 35,000  Level Salt Lake Center
05:55PM 41.8347 -109.1931 84° East 439 505 35,000  Level Salt Lake Center
05:56PM 41.8461 -109.0367 84° East 438 504 35,000  Level Salt Lake Center
05:57PM 41.8581 -108.8797 84° East 439 505 35,000  Level Salt Lake Center
05:58PM 41.8717 -108.6967 85° East 439 505 35,000  Level Salt Lake Center
05:59PM 41.8825 -108.5403 85° East 439 505 35,000  Level Salt Lake Center
06:00PM 41.8950 -108.3597 84° East 436 502 35,000  Level Salt Lake Center
06:01PM 41.9064 -108.2050 85° East 436 502 35,000  Level Salt Lake Center
06:02PM 41.9181 -108.0231 85° East 438 504 35,000  Level Salt Lake Center
06:03PM 41.9283 -107.8658 85° East 441 507 35,000  Level Salt Lake Center
06:04PM 41.9397 -107.6861 85° East 435 501 35,000  Level Salt Lake Center
06:05PM 41.9492 -107.5314 85° East 434 499 35,000  Level Salt Lake Center
06:06PM 41.9606 -107.3517 85° East 433 498 35,000  Level Salt Lake Center
06:07PM 41.9706 -107.1967 85° East 434 499 35,000  Level Salt Lake Center
06:08PM 41.9814 -107.0153 86° East 436 502 35,000  Level Salt Lake Center
06:09PM 41.9900 -106.8597 86° East 436 502 35,000  Level Salt Lake Center
06:10PM 41.9983 -106.7058 88° East 434 499 35,000  Level Salt Lake Center
06:11PM 42.0014 -106.5544 82° East 436 502 35,000  Level Denver Center
06:12PM 42.0181 -106.3953 86° East 425 489 35,000  Level Denver Center
06:13PM 42.0264 -106.2331 86° East 425 489 35,000  Level Denver Center
06:14PM 42.0364 -106.0569 86° East 425 489 35,000  Level Denver Center
06:15PM 42.0439 -105.8947 87° East 425 489 35,000  Level Denver Center
06:16PM 42.0494 -105.7467 87° East 425 489 35,000  Level Denver Center
06:17PM 42.0564 -105.5703 87° East 430 495 35,000  Level Denver Center
06:18PM 42.0633 -105.4081 86° East 430 495 35,000  Level Denver Center
06:20PM 42.0786 -105.1180 83° East 436 502 35,000  Level FlightAware ADS-B
06:21PM 42.0858 -105.0380 83° East 435 501 35,000  Level FlightAware ADS-B
06:21PM 42.0933 -104.9550 83° East 435 501 35,000  Level FlightAware ADS-B
06:22PM 42.1006 -104.8720 83° East 435 501 35,000  Level FlightAware ADS-B
06:22PM 42.1075 -104.7920 83° East 435 501 35,000  Level FlightAware ADS-B
06:23PM 42.1146 -104.7100 84° East 434 499 35,000  Level FlightAware ADS-B
06:23PM 42.1225 -104.6160 83° East 436 502 35,000  Level FlightAware ADS-B
06:24PM 42.1293 -104.5370 84° East 436 502 35,000  Level FlightAware ADS-B
06:24PM 42.1362 -104.4540 84° East 437 503 35,000  Level FlightAware ADS-B
06:25PM 42.1433 -104.3690 84° East 439 505 35,000  Level FlightAware ADS-B
06:25PM 42.1501 -104.2860 84° East 439 505 35,000  Level FlightAware ADS-B
06:26PM 42.1567 -104.2060 84° East 438 504 35,000  Level FlightAware ADS-B
06:26PM 42.1647 -104.1070 84° East 437 503 35,000  Level FlightAware ADS-B
06:27PM 42.1718 -104.0200 84° East 435 501 35,000  Level FlightAware ADS-B
06:27PM 42.1780 -103.9410 81° East 434 499 35,000  Level FlightAware ADS-B
06:28PM 42.1879 -103.8600 79° East 434 499 35,000  Level FlightAware ADS-B
06:28PM 42.2000 -103.7780 79° East 433 498 35,000  Level FlightAware ADS-B
06:29PM 42.2112 -103.6970 80° East 433 498 35,000  Level FlightAware ADS-B
06:29PM 42.2216 -103.6180 80° East 433 498 35,000  Level FlightAware ADS-B
06:30PM 42.2329 -103.5330 80° East 434 499 35,000  Level FlightAware ADS-B
06:30PM 42.2438 -103.4490 80° East 436 502 35,000  Level FlightAware ADS-B
06:31PM 42.2543 -103.3690 80° East 436 502 35,000  Level FlightAware ADS-B
06:31PM 42.2649 -103.2860 80° East 437 503 35,000  Level FlightAware ADS-B
06:32PM 42.2754 -103.2040 80° East 437 503 35,000  Level FlightAware ADS-B
06:33PM 42.2889 -103.0980 80° East 437 503 35,000  Level FlightAware ADS-B
06:33PM 42.3009 -103.0040 80° East 435 501 35,000  Level FlightAware ADS-B
06:34PM 42.3142 -102.8980 80° East 435 501 35,000  Level FlightAware ADS-B
06:34PM 42.3242 -102.8170 81° East 435 501 35,000  Level FlightAware ADS-B
06:35PM 42.3343 -102.7350 81° East 437 503 35,000  Level FlightAware ADS-B
06:36PM 42.3479 -102.6240 81° East 439 505 35,000  Level FlightAware ADS-B
06:37PM 42.3678 -102.4610 82° East 441 507 35,100  Climbing FlightAware ADS-B
06:37PM 42.3808 -102.3419 81° East 431 496 35,000 -60 Descending Denver Center
06:38PM 42.3983 -102.1972 80° East 431 496 35,000  Level Denver Center
06:39PM 42.4208 -102.0186 82° East 436 502 35,000  Level Denver Center
06:40PM 42.4375 -101.8569 81° East 436 502 35,000  Level Denver Center
06:41PM 42.4531 -101.7208 82° East 416 479 35,000  Level Denver Center
06:42PM 42.4725 -101.5419 80° East 430 495 35,000  Level Denver Center
06:43PM 42.4928 -101.3797 82° East 430 495 35,000  Level Denver Center
06:44PM 42.5086 -101.2178 81° East 430 495 35,000  Level Denver Center
06:45PM 42.5267 -101.0669 81° East 430 495 35,000  Level Denver Center
06:46PM 42.5472 -100.8875 83° East 436 502 35,000  Level Denver Center
06:47PM 42.5625 -100.7256 82° East 435 501 35,000  Level Denver Center
06:50PM 42.6008 -100.3514 81° East 432 497 35,000  Level Minneapolis Center
06:51PM 42.6194 -100.1842 82° East 437 503 35,000  Level Minneapolis Center
06:52PM 42.6356 -100.0222 83° East 437 503 35,000  Level Minneapolis Center
06:53PM 42.6514 -99.8572 82° East 438 504 35,000  Level Minneapolis Center
06:54PM 42.6692 -99.6925 84° East 443 510 35,000  Level Minneapolis Center
06:55PM 42.6825 -99.5300 82° East 438 504 35,000  Level Minneapolis Center
06:56PM 42.7000 -99.3650 83° East 443 510 35,000  Level Minneapolis Center
06:57PM 42.7150 -99.1969 83° East 443 510 35,000  Level Minneapolis Center
06:58PM 42.7297 -99.0317 83° East 443 510 35,000  Level Minneapolis Center
06:59PM 42.7444 -98.8661 82° East 443 510 35,000  Level Minneapolis Center
07:00PM 42.7608 -98.6981 83° East 443 510 35,000 60 Level Minneapolis Center
07:01PM 42.7747 -98.5325 83° East 438 504 35,200 300 Climbing Minneapolis Center
07:02PM 42.7886 -98.3667 86° East 443 510 35,700 480 Climbing Minneapolis Center
07:03PM 42.7983 -98.1892 82° East 443 510 36,200 480 Climbing Minneapolis Center
07:04PM 42.8158 -98.0264 85° East 449 517 36,700 360 Climbing Minneapolis Center
07:05PM 42.8267 -97.8575 84° East 449 517 37,000 120 Climbing Minneapolis Center
07:06PM 42.8394 -97.6942 83° East 438 504 37,000  Level Minneapolis Center
07:07PM 42.8542 -97.5283 85° East 443 510 37,000  Level Minneapolis Center
07:08PM 42.8644 -97.3533 84° East 443 510 37,000  Level Minneapolis Center
07:09PM 42.8764 -97.1900 84° East 443 510 37,000  Level Minneapolis Center
07:10PM 42.8878 -97.0406 84° East 443 510 37,000  Level Minneapolis Center
07:11PM 42.9011 -96.8769 85° East 443 510 37,000  Level Minneapolis Center
07:12PM 42.9125 -96.7106 85° East 443 510 37,000  Level Minneapolis Center
07:13PM 42.9236 -96.5411 85° East 438 504 37,000  Level Minneapolis Center
07:14PM 42.9344 -96.3744 85° East 438 504 37,000  Level Minneapolis Center
07:15PM 42.9450 -96.2106 84° East 443 510 37,000  Level Minneapolis Center
07:16PM 42.9575 -96.0411 85° East 443 510 37,000  Level Minneapolis Center
07:17PM 42.9675 -95.8714 86° East 443 510 37,000  Level Minneapolis Center
07:18PM 42.9775 -95.6903 86° East 443 510 37,000  Level Minneapolis Center
07:19PM 42.9869 -95.5233 85° East 443 510 37,000  Level Minneapolis Center
07:20PM 42.9983 -95.3592 86° East 443 510 37,000  Level Minneapolis Center
07:21PM 43.0075 -95.1919 86° East 443 510 37,000  Level Minneapolis Center
07:22PM 43.0161 -95.0219 86° East 443 510 37,000  Level Minneapolis Center
07:23PM 43.0247 -94.8578 85° East 438 504 37,000  Level Minneapolis Center
07:24PM 43.0350 -94.6906 86° East 443 510 37,000  Level Minneapolis Center
07:25PM 43.0428 -94.5431 87° East 443 510 37,000  Level Minneapolis Center
07:26PM 43.0486 -94.3728 88° East 443 510 37,000  Level Minneapolis Center
07:27PM 43.0519 -94.1939 92° East 437 503 37,000  Level Minneapolis Center
07:28PM 43.0467 -94.0264 92° East 437 503 37,000  Level Minneapolis Center
07:29PM 43.0433 -93.8589 91° East 442 509 37,000  Level Minneapolis Center
07:30PM 43.0419 -93.6886 93° East 440 506 37,000  Level Minneapolis Center
07:31PM 43.0358 -93.5242 92° East 442 509 37,000  Level Minneapolis Center
07:32PM 43.0317 -93.3708 92° East 442 509 37,000  Level Minneapolis Center
07:33PM 43.0272 -93.2033 93° East 442 509 37,000  Level Minneapolis Center
07:34PM 43.0206 -93.0361 91° East 442 509 37,000  Level Minneapolis Center
07:35PM 43.0178 -92.8658 93° East 442 509 37,000  Level Minneapolis Center
07:36PM 43.0106 -92.7014 91° East 442 509 37,000  Level Minneapolis Center
07:37PM 43.0072 -92.5311 93° East 442 509 37,000  Level Minneapolis Center
07:38PM 42.9956 -92.2539 94° East 433 498 37,000  Level Chicago Center
07:39PM 42.9872 -92.0858 92° East 433 498 37,000 -300 Level Chicago Center
07:40PM 42.9828 -91.9183 93° East 440 506 36,500 -1,200 Descending Chicago Center
07:41PM 42.9758 -91.7478 92° East 440 506 34,600 -2,460 Descending Chicago Center
07:42PM 42.9711 -91.5744 100° East 445 512 31,600 -1,800 Descending Chicago Center
07:43PM 42.9472 -91.3947 103° East 457 526 31,000 -300 Descending Chicago Center
07:44PM 42.9169 -91.2153 102° East 471 542 31,000 -60 Level Chicago Center
07:45PM 42.8883 -91.0386 103° East 476 548 30,900 -540 Descending Chicago Center
07:46PM 42.8594 -90.8622 103° East 476 548 30,000 -960 Descending Chicago Center
07:47PM 42.8306 -90.6861 103° East 476 548 29,000 -1,020 Descending Chicago Center
07:48PM 42.8011 -90.5072 103° East 476 548 28,000 -1,020 Descending Chicago Center
07:49PM 42.7714 -90.3314 103° East 476 548 27,000 -960 Descending Chicago Center
07:50PM 42.7417 -90.1583 102° East 470 541 26,100 -960 Descending Chicago Center
07:51PM 42.7136 -89.9800 104° East 470 541 25,100 -1,200 Descending Chicago Center
07:52PM 42.6831 -89.8158 104° East 465 535 23,700 -1,800 Descending Chicago Center
07:53PM 42.6522 -89.6492 103° East 454 522 21,500 -2,220 Descending Chicago Center
07:54PM 42.6256 -89.4881 103° East 443 510 19,300 -2,220 Descending Chicago Center
07:55PM 42.5986 -89.3358 104° East 431 496 17,100 -2,100 Descending Chicago Center
07:56PM 42.5714 -89.1836 108° East 426 490 15,100 -1,920 Descending Chicago Center
07:57PM 42.5378 -89.0400 112° Southeast 405 466 13,300 -1,260 Descending Chicago Center
07:58PM 42.4975 -88.9050 111° Southeast 389 448 12,600 -840 Descending Chicago Center
07:59PM 42.4594 -88.7731 113° Southeast 384 442 11,700 -1,140 Descending Chicago Center
08:00PM 42.4233 -88.6581 113° Southeast 347 399 10,400 -1,380 Descending Chicago Center
08:01PM 42.3914 -88.5542 117° Southeast 309 356 9,000 -840 Descending Chicago Center
08:02PM 42.3553 -88.4564 142° Southeast 291 335 8,800 -540 Descending Chicago Center
08:03PM 42.2881 -88.3844 160° South 291 335 8,000 -420 Descending Chicago Center
08:04PM 42.2169 -88.3489 172° South 293 337 8,000  Level Chicago Center
08:05PM 42.1500 -88.3361 179° South 276 318 8,000 -60 Level Chicago Center
08:06PM 42.0875 -88.3342 175° South 252 290 7,900 -600 Descending Chicago Center
08:07PM 42.0269 -88.3269 123° Southeast 230 265 6,800 -1,020 Descending Chicago Center
08:10PM 41.9667 -88.2000 90° East 183 211 4,600 -960 Descending Chicago TRACON
08:11PM 41.9667 -88.1333 90° East 175 201 3,600 -960 Descending Chicago TRACON
08:12PM 41.9667 -88.0667 90° East 172 198 2,700 -900 Descending Chicago TRACON
08:13PM 41.9667 -88.0000 90° East 149 171 1,800 -840 Descending Chicago TRACON
08:14PM 41.9667 -87.9500 90° East 128 147 1,100 -720 Descending Chicago TRACON